Tiempo atmosférico en la estación meteorológica de Alcalá del Júcar, Albacete (680 m.)

Fecha
DESCASC
Temp. máxima en grados centígrados (hora)
DESCASC
Temp. mínima en grados centígrados (hora)
DESCASC
Temp. media en grados centígrados
DESCASC
Racha de viento máxima en m/sg (hora)
DESCASC
Velocidad máxima media en intervalos de 10 minutos(hora)
DESCASC
Precipitaciones diarias en mm
DESCASC
Precipitaciones de 00:00 a 06:00 en mm
DESCASC
Precipitaciones de 06:00 a 12:00 en mm
DESCASC
Precipitaciones de 12:00 a 18:00 en mm
DESCASC
Precipitaciones de 18:00 a 24:00 en mm
DESCASC
10-12-2017 12.6 (14:30) 8.2 (06:50) 10.4 16.67 (23:59) 8.89 (23:59) 0 0 0 0 0
09-12-2017 12.2 (15:10) 5.9 (04:10) 9 7.78 (15:30) 5 (15:30) 1.2 1 0 0.2 0
08-12-2017 13.1 (15:10) 0.3 (04:00) 6.7 8.61 (13:10) 5.28 (13:00) 0 0 0 0 0
07-12-2017 8.8 (17:00) -3.6 (-00:0) 2.6 3.89 (16:40) 2.5 (22:20) 0 0 0 0 0
06-12-2017 12 (15:30) -4.5 (-00:0) 3.8 2.22 (11:30) 1.39 (17:50) 0 0 0 0 0
05-12-2017 11.4 (15:30) -5 (-00:0) 3.2 3.33 (13:10) 1.11 (11:00) 0 0 0 0 0
04-12-2017 10.2 (15:30) -5.1 (-00:0) 2.5 4.17 (00:30) 1.94 (00:10) 0 0 0 0 0
03-12-2017 8 (15:30) -3.9 (-00:0) 2 6.39 (14:40) 3.61 (14:40) 0 0 0 0 0
02-12-2017 5.7 (15:20) -3.3 (-00:0) 1.2 13.89 (15:40) 7.78 (15:40) 0 0 0 0 0
01-12-2017 7.9 (13:40) -1.1 (-00:0) 3.4 13.33 (15:10) 8.06 (15:00) 11.2 0.4 0.2 10.4 0.2
30-11-2017 10.5 (15:30) -0.3 (00:00) 5.1 7.22 (18:00) 3.89 (18:00) 1.4 0.2 0.4 0.6 0.2
29-11-2017 11.3 (14:50) 6.4 (00:00) 8.9 5.83 (00:10) 3.33 (00:10) -- -- -- 0.4 0.2
28-11-2017 13.8 (13:30) 4.2 (00:00) 9 8.61 (13:40) 4.44 (15:30) -- -- -- -- --
27-11-2017 14.1 (15:40) -2.3 (-00:0) 5.9 4.72 (12:10) 2.5 (12:10) 0 0 0 0 0
26-11-2017 15 (15:30) 1.2 (00:00) 8.1 3.89 (12:40) 1.94 (13:20) 0 0 0 0 0
25-11-2017 18 (15:30) 6.4 (00:00) 12.2 8.61 (15:40) 5.28 (16:20) 0 0 0 0 0
24-11-2017 21.5 (15:30) 4.5 (00:00) 13 6.39 (14:00) 3.61 (16:00) 0 0 0 0 0
23-11-2017 19.5 (15:30) 1.7 (00:00) 10.6 5 (14:20) 2.5 (13:40) 0 0 0 0 0
22-11-2017 19.7 (16:10) -0.9 (-00:0) 9.4 5 (14:40) 2.22 (14:40) 0 0 0 0 0
21-11-2017 20.7 (15:40) -0.2 (00:00) 10.3 5 (14:50) 2.5 (14:50) 0 0 0 0 0
20-11-2017 20.2 (15:40) -0.4 (00:00) 9.9 4.17 (14:20) 2.22 (14:20) 0 0 0 0 0
19-11-2017 20.4 (15:40) 1.6 (00:00) 11 4.17 (15:30) 2.5 (01:30) 0 0 0 0 0
18-11-2017 22.2 (15:40) -0.4 (00:00) 10.9 6.67 (20:30) 3.61 (19:40) 0 0 0 0 0
17-11-2017 19.8 (15:40) -1.2 (-00:0) 9.3 2.5 (02:10) 1.39 (02:10) 0 0 0 0 0
16-11-2017 18.5 (15:40) -1 (-00:0) 8.8 4.17 (11:50) 1.67 (15:00) 0 0 0 0 0
15-11-2017 18 (15:40) -2.4 (-00:0) 7.8 5.28 (15:40) 2.5 (16:00) 0 0 0 0 0

Gráficas

Temp. máximas Temp. mínimas Temp. medias Precipitaciones Rachas de viento máximas Velocidades máximas media en intervalos de 10 minutos

Datos horarios

Fecha y hora oficial Temperatura (ºC) Velocidad del viento (km/h) Dirección del viento Racha (km/h) Dirección de racha Precipitación (mm) Presión (hPa) Tendencia (hPa) Humedad (%)
2017-12-14 23:00:00 8.8 12 Oeste 32 Oeste 0 -- -- 87
2017-12-14 22:00:00 8.5 12 Oeste 33 Oeste 0 -- -- 87
2017-12-14 21:00:00 8.6 17 Oeste 39 Noroeste 0 -- -- 85
2017-12-14 20:00:00 8.2 13 Oeste 36 Oeste 0 -- -- 85
2017-12-14 19:00:00 8 15 Oeste 29 Oeste 0 -- -- 86
2017-12-14 18:00:00 7.9 14 Oeste 36 Oeste 0 -- -- 89
2017-12-14 17:00:00 8.4 14 Oeste 31 Oeste 0 -- -- 91
2017-12-14 16:00:00 8.5 19 Oeste 35 Oeste 0 -- -- 88
2017-12-14 15:00:00 8.1 18 Oeste 35 Oeste 0 -- -- 86
2017-12-14 14:00:00 7.9 20 Oeste 39 Oeste 0 -- -- 84
2017-12-14 13:00:00 8 16 Oeste 36 Oeste 0 -- -- 83
2017-12-14 12:00:00 7.2 15 Oeste 35 Oeste 0 -- -- 85
2017-12-14 11:00:00 6 15 Oeste 30 Oeste 0 -- -- 88
2017-12-14 10:00:00 4.1 5 Oeste 12 Oeste 0 -- -- 87
2017-12-14 09:00:00 3.3 3 Sudoeste 14 Sudoeste 0 -- -- 86
2017-12-14 08:00:00 3.1 3 Sudoeste 11 Oeste 0 -- -- 85
2017-12-14 07:00:00 3.5 2 Sudoeste 10 Oeste 0 -- -- 83
2017-12-14 06:00:00 4.1 6 Oeste 20 Sudoeste 0 -- -- 81
2017-12-14 05:00:00 4 12 Oeste 21 Oeste 0 -- -- 79
2017-12-14 04:00:00 4.2 8 Oeste 24 Oeste 0 -- -- 79
2017-12-14 03:00:00 4.1 10 Oeste 26 Noroeste 0 -- -- 78
2017-12-14 02:00:00 2.9 11 Oeste 25 Oeste 0 -- -- 80
2017-12-14 01:00:00 2.3 8 Oeste 14 Oeste 0 -- -- 80
2017-12-14 00:00:00 2.6 8 Oeste 15 Oeste 0 -- -- 78
2017-12-13 23:00:00 3.4 9 Oeste 19 Oeste 0 -- -- 75
2017-12-13 22:00:00 3.9 10 Oeste 18 Oeste 0 -- -- 74
2017-12-13 21:00:00 4.1 5 Oeste 11 Oeste 0 -- -- 72
2017-12-13 20:00:00 5.5 8 Oeste 19 Noroeste 0 -- -- 68
2017-12-13 19:00:00 6 15 Noroeste 24 Oeste 0 -- -- 65
2017-12-13 18:00:00 6.9 8 Oeste 19 Noroeste 0 -- -- 62
2017-12-13 17:00:00 8.8 10 Oeste 29 Noroeste 0 -- -- 56
2017-12-13 16:00:00 9.1 12 Oeste 32 Oeste 0 -- -- 54
2017-12-13 15:00:00 9 16 Oeste 28 Oeste 0 -- -- 54
2017-12-13 14:00:00 8 15 Oeste 27 Oeste 0 -- -- 60
2017-12-13 13:00:00 6.1 13 Oeste 28 Oeste 0 -- -- 66
2017-12-13 12:00:00 4.5 13 Oeste 22 Oeste 0 -- -- 71
2017-12-13 11:00:00 3 8 Sudoeste 16 Sudoeste 0 -- -- 76
2017-12-13 10:00:00 0.7 7 Oeste 13 Oeste 0 -- -- 83
2017-12-13 09:00:00 -1.1 6 Oeste 10 Oeste 0 -- -- 88
2017-12-13 08:00:00 -1.5 5 Oeste 10 Oeste 0 -- -- 86
2017-12-13 07:00:00 -1.7 0 Calma 10 Oeste 0 -- -- 87
2017-12-13 06:00:00 -1.4 4 Oeste 9 Oeste 0 -- -- 86
2017-12-13 05:00:00 -1 4 Oeste 9 Oeste 0 -- -- 86
2017-12-13 04:00:00 -0.6 4 Oeste 9 Oeste 0 -- -- 86
2017-12-13 03:00:00 -0.3 4 Oeste 9 Oeste 0 -- -- 85
2017-12-13 02:00:00 -0.2 3 Oeste 10 Oeste 0 -- -- 85
2017-12-13 01:00:00 0.2 2 Sudoeste 5 Sudoeste 0 -- -- 83
2017-12-13 00:00:00 0.8 4 Oeste 8 Oeste 0 -- -- 81
2017-12-12 23:00:00 1.2 0 Calma 8 Oeste 0 -- -- 79
2017-12-12 22:00:00 2 0 Calma 8 Noroeste 0 -- -- 75
2017-12-12 21:00:00 3.1 5 Oeste 9 Oeste 0 -- -- 71
2017-12-12 20:00:00 3.1 5 Norte 16 Noroeste 0 -- -- 73
2017-12-12 19:00:00 4.4 8 Noroeste 15 Noroeste 0 -- -- 68
2017-12-12 18:00:00 6.4 9 Oeste 19 Noroeste 0 -- -- 53
2017-12-12 17:00:00 8.7 10 Oeste 21 Noroeste 0 -- -- 46
2017-12-12 16:00:00 8.9 10 Noroeste 22 Noroeste 0 -- -- 45
2017-12-12 15:00:00 8.9 9 Noroeste 22 Noroeste 0 -- -- 48
2017-12-12 14:00:00 8 10 Noroeste 21 Noroeste 0 -- -- 53
2017-12-12 13:00:00 7 9 Norte 18 Norte 0 -- -- 59
2017-12-12 12:00:00 5.9 8 Norte 18 Norte 0 -- -- 65
2017-12-12 11:00:00 5.1 7 Noroeste 15 Noroeste 0 -- -- 73
2017-12-12 10:00:00 3.5 8 Oeste 14 Oeste 0 -- -- 81
2017-12-12 09:00:00 2.4 2 Oeste 5 Oeste 0 -- -- 93
2017-12-12 08:00:00 2.3 0 Calma 8 Oeste 0 -- -- 92
2017-12-12 07:00:00 3.1 5 Oeste 21 Oeste 0 -- -- 91
2017-12-12 06:00:00 3.9 3 Sudoeste 8 Oeste 0 -- -- 91
2017-12-12 05:00:00 4.1 4 Oeste 15 Oeste 0 -- -- 89
2017-12-12 04:00:00 4.4 6 Noroeste 11 Noroeste 0 -- -- 89
2017-12-12 03:00:00 4.6 2 Sudoeste 14 Oeste 0.2 -- -- 87
2017-12-12 02:00:00 4.4 4 Sudoeste 9 Sudoeste 0.2 -- -- 87
2017-12-12 01:00:00 3.8 5 Oeste 8 Oeste 0 -- -- 88
2017-12-12 00:00:00 3.7 2 Sudoeste 12 Norte 0 -- -- 86
2017-12-11 23:00:00 3.9 4 Oeste 10 Noroeste 0 -- -- 84
2017-12-11 22:00:00 5.2 6 Oeste 26 Oeste 0 -- -- 77
2017-12-11 21:00:00 6 13 Oeste 34 Oeste 0 -- -- 74
2017-12-11 20:00:00 6.2 14 Oeste 32 Oeste 0 -- -- 75
2017-12-11 19:00:00 6.5 14 Oeste 37 Oeste 0 -- -- 73
2017-12-11 18:00:00 6.9 17 Oeste 35 Oeste 0 -- -- 71
2017-12-11 17:00:00 7.7 15 Oeste 33 Noroeste 0 -- -- 70
2017-12-11 16:00:00 6.6 15 Oeste 34 Oeste 0 -- -- 80
2017-12-11 15:00:00 5.8 14 Oeste 46 Oeste 0 -- -- 83
2017-12-11 14:00:00 5.6 18 Oeste 38 Oeste 0 -- -- 84
2017-12-11 13:00:00 5.1 18 Oeste 38 Oeste 0.2 -- -- 84
2017-12-11 12:00:00 4.6 17 Oeste 40 Oeste 0.6 -- -- 89
2017-12-11 11:00:00 4.4 26 Oeste 50 Oeste 1 -- -- 89
2017-12-11 10:00:00 5.9 24 Oeste 40 Oeste 0.6 -- -- 89
2017-12-11 09:00:00 6.4 23 Oeste 47 Oeste 0.6 -- -- 83
2017-12-11 08:00:00 7.4 23 Noroeste 63 Oeste 1.6 -- -- 85
2017-12-11 07:00:00 13.3 31 Oeste 59 Sudoeste 0 -- -- 59
2017-12-11 06:00:00 13.1 31 Oeste 67 Oeste 0 -- -- 58
2017-12-11 05:00:00 12.9 34 Oeste 76 Oeste 0 -- -- 60
2017-12-11 04:00:00 12.6 39 Oeste 77 Oeste 0 -- -- 67
2017-12-11 03:00:00 12.1 37 Oeste 76 Oeste 0 -- -- 72
2017-12-11 02:00:00 11.5 23 Sudoeste 44 Sudoeste 0 -- -- 73
2017-12-11 01:00:00 11.4 31 Oeste 68 Oeste 0 -- -- 70
2017-12-11 00:00:00 11 32 Oeste 60 Sudoeste 0 -- -- 71
2017-12-10 23:00:00 11.2 28 Oeste 51 Oeste 0 -- -- 71
2017-12-10 22:00:00 10.7 23 Oeste 47 Sudoeste 0 -- -- 74
2017-12-10 21:00:00 10.5 24 Oeste 46 Oeste 0 -- -- 78
2017-12-10 20:00:00 10.4 20 Oeste 42 Oeste 0 -- -- 76
2017-12-10 19:00:00 10.6 24 Oeste 44 Sudoeste 0 -- -- 73
2017-12-10 18:00:00 10.8 23 Oeste 45 Oeste 0 -- -- 71
2017-12-10 17:00:00 11.6 17 Oeste 40 Oeste 0 -- -- 66
2017-12-10 16:00:00 12 21 Oeste 49 Noroeste 0 -- -- 64
2017-12-10 15:00:00 12.4 24 Oeste 49 Oeste 0 -- -- 60
2017-12-10 14:00:00 12.4 20 Oeste 53 Oeste 0 -- -- 59
2017-12-10 13:00:00 12.5 27 Oeste 49 Oeste 0 -- -- 59
2017-12-10 12:00:00 11.9 29 Oeste 51 Oeste 0 -- -- 67
2017-12-10 11:00:00 10.5 19 Oeste 34 Oeste 0 -- -- 79
2017-12-10 10:00:00 10.1 15 Oeste 36 Oeste 0 -- -- 83
2017-12-10 09:00:00 9.5 14 Oeste 27 Sudoeste 0 -- -- 87
2017-12-10 08:00:00 8.7 15 Oeste 28 Oeste 0 -- -- 89
2017-12-10 07:00:00 8.2 3 Sudoeste 13 Oeste 0 -- -- 89
2017-12-10 06:00:00 8.3 8 Oeste 23 Oeste 0 -- -- 88
2017-12-10 05:00:00 8.7 10 Oeste 20 Oeste 0 -- -- 88
2017-12-10 04:00:00 9.3 11 Oeste 24 Oeste 0 -- -- 87
2017-12-10 03:00:00 10 15 Oeste 30 Oeste 0 -- -- 85
2017-12-10 02:00:00 10.1 15 Oeste 27 Sudoeste 0 -- -- 85
2017-12-10 01:00:00 9.9 8 Oeste 15 Sudoeste 0 -- -- 85
2017-12-10 00:00:00 10.1 6 Sudoeste 24 Sudoeste 0 -- -- 83
2017-12-09 23:00:00 10.4 14 Oeste 28 Oeste 0 -- -- 82
2017-12-09 22:00:00 10.3 15 Oeste 24 Oeste 0 -- -- 82
2017-12-09 21:00:00 10.5 9 Oeste 17 Oeste 0 -- -- 82
2017-12-09 20:00:00 10.8 6 Oeste 13 Oeste 0 -- -- 82
2017-12-09 19:00:00 11 8 Oeste 18 Oeste 0 -- -- 80
2017-12-09 18:00:00 11 8 Oeste 22 Noroeste 0 -- -- 78
2017-12-09 17:00:00 12 10 Oeste 22 Oeste 0 -- -- 73
2017-12-09 16:00:00 11.9 13 Noroeste 28 Noroeste 0 -- -- 71
2017-12-09 15:00:00 12 13 Noroeste 27 Noroeste 0 -- -- 71
2017-12-09 14:00:00 11.7 7 Oeste 21 Oeste 0.2 -- -- 70
2017-12-09 13:00:00 11.2 10 Noroeste 26 Oeste 0 -- -- 72
2017-12-09 12:00:00 10.4 10 Oeste 21 Oeste 0 -- -- 78
2017-12-09 11:00:00 9 9 Oeste 19 Oeste 0 -- -- 89
2017-12-09 10:00:00 7.7 8 Oeste 18 Oeste 0 -- -- 91
2017-12-09 09:00:00 7.1 8 Oeste 17 Oeste 0 -- -- 91
2017-12-09 08:00:00 6.9 9 Oeste 16 Oeste 0 -- -- 89
2017-12-09 07:00:00 6.6 6 Oeste 9 Oeste 0 -- -- 87
2017-12-09 06:00:00 6.3 0 Calma 5 Oeste 0 -- -- 88
2017-12-09 05:00:00 5.9 0 Calma 5 Sudeste 0.2 -- -- 90
2017-12-09 04:00:00 6 2 Sudoeste 4 Sudoeste 0.4 -- -- 86
2017-12-09 03:00:00 6.6 0 Calma 10 Oeste 0.4 -- -- 81
2017-12-09 02:00:00 7.1 5 Sudoeste 13 Sudoeste 0 -- -- 70
2017-12-09 01:00:00 7 8 Oeste 13 Sudoeste 0 -- -- 68
2017-12-09 00:00:00 6.7 7 Oeste 11 Oeste 0 -- -- 67
2017-12-08 23:00:00 6.5 8 Oeste 16 Oeste 0 -- -- 66
2017-12-08 22:00:00 6.6 7 Sudoeste 13 Oeste 0 -- -- 64
2017-12-08 21:00:00 7.8 7 Oeste 19 Oeste 0 -- -- 64
2017-12-08 20:00:00 8.2 9 Oeste 22 Noroeste 0 -- -- 65
2017-12-08 19:00:00 9.3 11 Oeste 19 Oeste 0 -- -- 60
2017-12-08 18:00:00 10.2 9 Oeste 22 Noroeste 0 -- -- 54
2017-12-08 17:00:00 11.5 12 Oeste 24 Oeste 0 -- -- 49
2017-12-08 16:00:00 12 12 Oeste 28 Oeste 0 -- -- 49
2017-12-08 15:00:00 13 15 Oeste 29 Oeste 0 -- -- 45
2017-12-08 14:00:00 12.4 16 Oeste 31 Oeste 0 -- -- 45
2017-12-08 13:00:00 10.5 19 Oeste 30 Oeste 0 -- -- 44
2017-12-08 12:00:00 7.5 9 Oeste 24 Oeste 0 -- -- 57
2017-12-08 11:00:00 4.6 8 Oeste 18 Oeste 0 -- -- 64
2017-12-08 10:00:00 2.9 9 Oeste 14 Oeste 0 -- -- 67
2017-12-08 09:00:00 2.3 5 Oeste 12 Sudoeste 0 -- -- 67
2017-12-08 08:00:00 1.2 5 Oeste 13 Oeste 0 -- -- 71
2017-12-08 07:00:00 1.3 8 Oeste 13 Oeste 0 -- -- 69
2017-12-08 06:00:00 1.1 4 Oeste 12 Oeste 0 -- -- 70
2017-12-08 05:00:00 1.1 8 Oeste 13 Oeste 0 -- -- 70
2017-12-08 04:00:00 0.3 4 Oeste 11 Oeste 0 -- -- 73
2017-12-08 03:00:00 0.7 6 Oeste 12 Oeste 0 -- -- 72
2017-12-08 02:00:00 1.3 7 Oeste 13 Oeste 0 -- -- 70
2017-12-08 01:00:00 1.6 6 Oeste 13 Noroeste 0 -- -- 68
2017-12-08 00:00:00 1.8 4 Oeste 10 Sudoeste 0 -- -- 66
2017-12-07 23:00:00 2.3 5 Oeste 13 Oeste 0 -- -- 64
2017-12-07 22:00:00 2.6 5 Oeste 9 Oeste 0 -- -- 64
2017-12-07 21:00:00 3.5 3 Sudoeste 8 Sudoeste 0 -- -- 62
2017-12-07 20:00:00 4.5 6 Oeste 10 Oeste 0 -- -- 60
2017-12-07 19:00:00 6.2 5 Oeste 9 Oeste 0 -- -- 56
2017-12-07 18:00:00 7.8 4 Oeste 12 Oeste 0 -- -- 50
2017-12-07 17:00:00 8.8 7 Oeste 14 Oeste 0 -- -- 51
2017-12-07 16:00:00 8.6 5 Oeste 13 Oeste 0 -- -- 60
2017-12-07 15:00:00 7.2 8 Oeste 12 Oeste 0 -- -- 64
2017-12-07 14:00:00 5.2 5 Oeste 12 Oeste 0 -- -- 80
2017-12-07 13:00:00 1.4 8 Oeste 12 Oeste 0 -- -- 95
2017-12-07 12:00:00 0.2 4 Sudoeste 8 Sudoeste 0 -- -- 95
2017-12-07 11:00:00 -0.6 3 Oeste 10 Noroeste 0 -- -- 96
2017-12-07 10:00:00 -1.9 2 Sudoeste 6 Oeste 0 -- -- 95
2017-12-07 09:00:00 -3.1 0 Calma 4 Noroeste 0 -- -- 94
2017-12-07 08:00:00 -3.6 0 Calma 4 Sudoeste 0 -- -- 93
2017-12-07 07:00:00 -3.5 0 Calma 4 Noroeste 0 -- -- 90
2017-12-07 06:00:00 -2.9 0 Calma 3 Noroeste 0 -- -- 87
2017-12-07 05:00:00 -2.4 0 Calma 4 Nordeste 0 -- -- 87
2017-12-07 04:00:00 -1.9 3 Norte 4 Norte 0 -- -- 84
2017-12-07 03:00:00 -1.5 0 Calma 2 Este 0 -- -- 83
2017-12-07 02:00:00 -1.1 0 Calma 4 Nordeste 0 -- -- 82
2017-12-07 01:00:00 -0.3 3 Nordeste 4 Nordeste 0 -- -- 79
2017-12-07 00:00:00 -0.2 0 Calma 3 Noroeste 0 -- -- 76
2017-12-06 23:00:00 0.5 0 Calma 2 Norte 0 -- -- 76
2017-12-06 22:00:00 1.4 0 Calma 2 Este 0 -- -- 71
2017-12-06 21:00:00 2.3 0 Calma 5 Nordeste 0 -- -- 67
2017-12-06 20:00:00 3.9 0 Calma 3 Sur 0 -- -- 61
2017-12-06 19:00:00 5.9 0 Calma 6 Nordeste 0 -- -- 52
2017-12-06 18:00:00 8.5 5 Nordeste 8 Nordeste 0 -- -- 47
2017-12-06 17:00:00 11 3 Nordeste 7 Nordeste 0 -- -- 44
2017-12-06 16:00:00 11.2 3 Nordeste 7 Norte 0 -- -- 43
2017-12-06 15:00:00 10.9 4 Norte 6 Norte 0 -- -- 44
2017-12-06 14:00:00 9.2 0 Calma 6 Norte 0 -- -- 46
2017-12-06 13:00:00 7.2 0 Calma 6 Oeste 0 -- -- 50
2017-12-06 12:00:00 5 3 Nordeste 8 Norte 0 -- -- 56
2017-12-06 11:00:00 2.4 2 Sudeste 6 Nordeste 0 -- -- 65
2017-12-06 10:00:00 -1.1 0 Calma 6 Nordeste 0 -- -- 77
2017-12-06 09:00:00 -4 0 Calma 3 Nordeste 0 -- -- 82
2017-12-06 08:00:00 -4.1 0 Calma 4 Nordeste 0 -- -- 80
2017-12-06 07:00:00 -4.2 0 Calma 2 Este 0 -- -- 83
2017-12-06 06:00:00 -3.7 0 Calma 2 Nordeste 0 -- -- 81
2017-12-06 05:00:00 -3.4 0 Calma 4 Nordeste 0 -- -- 79
2017-12-06 04:00:00 -3.2 0 Calma 3 Este 0 -- -- 81
2017-12-06 03:00:00 -2.7 0 Calma 2 Este 0 -- -- 79
2017-12-06 02:00:00 -2.2 0 Calma 3 Nordeste 0 -- -- 76
2017-12-06 01:00:00 -1.9 0 Calma 2 Sudeste 0 -- -- 76
2017-12-06 00:00:00 -1.3 0 Calma 3 Este 0 -- -- 75
2017-12-05 23:00:00 -0.5 2 Este 3 Este 0 -- -- 73
2017-12-05 22:00:00 0.5 0 Calma 2 Oeste 0 -- -- 67
2017-12-05 21:00:00 1.8 0 Calma 4 Noroeste 0 -- -- 61
2017-12-05 20:00:00 3.1 2 Sudeste 5 Sudeste 0 -- -- 58
2017-12-05 19:00:00 5.1 0 Calma 8 Este 0 -- -- 51
2017-12-05 18:00:00 7.8 2 Este 7 Nordeste 0 -- -- 43
2017-12-05 17:00:00 10.3 0 Calma 8 Este 0 -- -- 37
2017-12-05 16:00:00 10.7 3 Nordeste 8 Nordeste 0 -- -- 35
2017-12-05 15:00:00 10.4 2 Nordeste 8 Este 0 -- -- 39
2017-12-05 14:00:00 9 2 Este 12 Nordeste 0 -- -- 44
2017-12-05 13:00:00 6.9 3 Nordeste 9 Nordeste 0 -- -- 55
2017-12-05 12:00:00 4.1 3 Nordeste 8 Nordeste 0 -- -- 71
2017-12-05 11:00:00 1.7 4 Norte 8 Nordeste 0 -- -- 76
2017-12-05 10:00:00 -2 0 Calma 2 Sudeste 0 -- -- 85
2017-12-05 09:00:00 -4.5 0 Calma 4 Nordeste 0 -- -- 86
2017-12-05 08:00:00 -4.9 0 Calma 3 Nordeste 0 -- -- 88
2017-12-05 07:00:00 -4.8 0 Calma 2 Este 0 -- -- 87
2017-12-05 06:00:00 -4.3 0 Calma 2 Sudoeste 0 -- -- 85
2017-12-05 05:00:00 -3.9 0 Calma 3 Este 0 -- -- 84
2017-12-05 04:00:00 -3.5 0 Calma 3 Nordeste 0 -- -- 83
2017-12-05 03:00:00 -3.2 0 Calma 0 Calma 0 -- -- 83
2017-12-05 02:00:00 -2.8 0 Calma 3 Nordeste 0 -- -- 81
2017-12-05 01:00:00 -2.4 2 Norte 4 Nordeste 0 -- -- 79
2017-12-05 00:00:00 -1.8 0 Calma 2 Sudoeste 0 -- -- 79
2017-12-04 23:00:00 -1.2 0 Calma 0 Calma 0 -- -- 76
2017-12-04 22:00:00 -0.3 0 Calma 3 Sudoeste 0 -- -- 72
2017-12-04 21:00:00 0.6 0 Calma 2 Norte 0 -- -- 69
2017-12-04 20:00:00 1.7 0 Calma 2 Sudoeste 0 -- -- 63
2017-12-04 19:00:00 3.7 0 Calma 4 Noroeste 0 -- -- 55
2017-12-04 18:00:00 6.3 0 Calma 4 Oeste 0 -- -- 47
2017-12-04 17:00:00 9.3 2 Noroeste 4 Norte 0 -- -- 39
2017-12-04 16:00:00 9.5 2 Norte 7 Noroeste 0 -- -- 39
2017-12-04 15:00:00 8.8 3 Noroeste 9 Noroeste 0 -- -- 42
2017-12-04 14:00:00 7.3 3 Nordeste 9 Noroeste 0 -- -- 49
2017-12-04 13:00:00 4.9 3 Noroeste 7 Noroeste 0 -- -- 61
2017-12-04 12:00:00 2.5 2 Oeste 8 Oeste 0 -- -- 65
2017-12-04 11:00:00 0.5 3 Noroeste 9 Oeste 0 -- -- 67
2017-12-04 10:00:00 -2.2 2 Sudoeste 5 Oeste 0 -- -- 76
2017-12-04 09:00:00 -4.8 0 Calma 6 Oeste 0 -- -- 81
2017-12-04 08:00:00 -5 3 Oeste 6 Oeste 0 -- -- 79
2017-12-04 07:00:00 -4.6 0 Calma 6 Nordeste 0 -- -- 77
2017-12-04 06:00:00 -4.3 3 Oeste 5 Oeste 0 -- -- 76
2017-12-04 05:00:00 -3.6 2 Oeste 6 Oeste 0 -- -- 72
2017-12-04 04:00:00 -3.2 2 Noroeste 5 Sudoeste 0 -- -- 70
2017-12-04 03:00:00 -2.9 3 Sudoeste 8 Oeste 0 -- -- 68
2017-12-04 02:00:00 -2.7 3 Oeste 7 Oeste 0 -- -- 69
2017-12-04 01:00:00 -2.3 4 Sudoeste 15 Oeste 0 -- -- 69
2017-12-04 00:00:00 -1.5 6 Oeste 14 Oeste 0 -- -- 65
2017-12-03 23:00:00 -1.3 4 Sudoeste 12 Oeste 0 -- -- 65
2017-12-03 22:00:00 -0.4 3 Sudoeste 8 Oeste 0 -- -- 61
2017-12-03 21:00:00 0.4 3 Sudoeste 10 Oeste 0 -- -- 56
2017-12-03 20:00:00 1.6 4 Oeste 12 Sudoeste 0 -- -- 52
2017-12-03 19:00:00 2.7 5 Sudoeste 12 Oeste 0 -- -- 50
2017-12-03 18:00:00 4.4 7 Oeste 17 Oeste 0 -- -- 45
2017-12-03 17:00:00 6.5 8 Sudoeste 21 Noroeste 0 -- -- 37
2017-12-03 16:00:00 7.2 9 Sudoeste 20 Oeste 0 -- -- 34
2017-12-03 15:00:00 6.8 10 Oeste 23 Oeste 0 -- -- 35
2017-12-03 14:00:00 5.6 10 Oeste 23 Sudoeste 0 -- -- 38
2017-12-03 13:00:00 4.1 10 Oeste 21 Oeste 0 -- -- 43
2017-12-03 12:00:00 2.4 6 Oeste 14 Oeste 0 -- -- 53
2017-12-03 11:00:00 0.5 4 Oeste 15 Oeste 0 -- -- 65
2017-12-03 10:00:00 -1.7 5 Sudoeste 12 Sudoeste 0 -- -- 77
2017-12-03 09:00:00 -3.5 6 Oeste 15 Oeste 0 -- -- 84
2017-12-03 08:00:00 -3.9 2 Sudoeste 10 Oeste 0 -- -- 84
2017-12-03 07:00:00 -3.6 6 Oeste 10 Oeste 0 -- -- 82
2017-12-03 06:00:00 -3 6 Oeste 10 Oeste 0 -- -- 79
2017-12-03 05:00:00 -2.6 6 Oeste 13 Oeste 0 -- -- 77
2017-12-03 04:00:00 -2.3 2 Sudoeste 8 Oeste 0 -- -- 75
2017-12-03 03:00:00 -2 0 Calma 7 Noroeste 0 -- -- 73
2017-12-03 02:00:00 -1.7 6 Norte 11 Nordeste 0 -- -- 72
2017-12-03 01:00:00 -1.4 5 Noroeste 10 Norte 0 -- -- 74
2017-12-03 00:00:00 -0.4 4 Oeste 18 Noroeste 0 -- -- 76
2017-12-02 23:00:00 0.9 12 Noroeste 28 Oeste 0 -- -- 72
2017-12-02 22:00:00 1.2 12 Noroeste 26 Noroeste 0 -- -- 69
2017-12-02 21:00:00 1.9 13 Noroeste 24 Noroeste 0 -- -- 62
2017-12-02 20:00:00 2.2 12 Noroeste 27 Noroeste 0 -- -- 65
2017-12-02 19:00:00 2.7 13 Noroeste 25 Noroeste 0 -- -- 64
2017-12-02 18:00:00 3.3 13 Noroeste 32 Noroeste 0 -- -- 61
2017-12-02 17:00:00 4.7 19 Noroeste 40 Noroeste 0 -- -- 59
2017-12-02 16:00:00 5.3 18 Noroeste 50 Noroeste 0 -- -- 56
2017-12-02 15:00:00 5 22 Noroeste 41 Noroeste 0 -- -- 56
2017-12-02 14:00:00 4.9 22 Noroeste 42 Noroeste 0 -- -- 55
2017-12-02 13:00:00 4.9 22 Noroeste 41 Norte 0 -- -- 59
2017-12-02 12:00:00 4 17 Oeste 31 Oeste 0 -- -- 64
2017-12-02 11:00:00 2.5 18 Noroeste 32 Oeste 0 -- -- 70
2017-12-02 10:00:00 -0.7 4 Oeste 13 Oeste 0 -- -- 81
2017-12-02 09:00:00 -2.4 6 Sudoeste 14 Oeste 0 -- -- 82
2017-12-02 08:00:00 -3.2 4 Sudoeste 11 Oeste 0 -- -- 83
2017-12-02 07:00:00 -2.7 5 Sur 17 Sudoeste 0 -- -- 81
2017-12-02 06:00:00 -2.1 7 Sudoeste 22 Oeste 0 -- -- 79
2017-12-02 05:00:00 -2.3 4 Sudoeste 15 Oeste 0 -- -- 80
2017-12-02 04:00:00 -2.1 7 Oeste 18 Oeste 0 -- -- 78
2017-12-02 03:00:00 -1.7 9 Oeste 18 Sudoeste 0 -- -- 75
2017-12-02 02:00:00 -1.6 8 Oeste 17 Oeste 0 -- -- 75
2017-12-02 01:00:00 -1.7 6 Oeste 11 Oeste 0 -- -- 77
2017-12-02 00:00:00 -1.1 5 Oeste 10 Oeste 0 -- -- 75
2017-12-01 23:00:00 -1 3 Oeste 13 Noroeste 0 -- -- 73
2017-12-01 22:00:00 -0.1 9 Noroeste 22 Noroeste 0.2 -- -- 72
2017-12-01 21:00:00 0.5 8 Noroeste 19 Noroeste 0 -- -- 75
2017-12-01 20:00:00 0.9 9 Noroeste 17 Noroeste 0 -- -- 77
2017-12-01 19:00:00 1.5 3 Oeste 6 Oeste 0 -- -- 86
2017-12-01 18:00:00 2.4 0 Calma 23 Este 0 -- -- 85
2017-12-01 17:00:00 4 12 Nordeste 32 Norte 0.2 -- -- 80
2017-12-01 16:00:00 5.3 20 Norte 48 Noroeste 0.2 -- -- 76
2017-12-01 15:00:00 7.8 29 Noroeste 47 Noroeste 0 -- -- 53
2017-12-01 14:00:00 7.5 26 Noroeste 45 Oeste 1.4 -- -- 51
2017-12-01 13:00:00 6.8 17 Oeste 39 Noroeste 8.6 -- -- 57
2017-12-01 12:00:00 4.9 19 Oeste 37 Noroeste 0.2 -- -- 62
2017-12-01 11:00:00 3 15 Oeste 28 Oeste 0 -- -- 71
2017-12-01 10:00:00 0.9 13 Oeste 25 Oeste 0 -- -- 77
2017-12-01 09:00:00 -0.4 8 Sudoeste 18 Oeste 0 -- -- 80
2017-12-01 08:00:00 -0.5 9 Oeste 15 Sudoeste 0 -- -- 80
2017-12-01 07:00:00 -0.9 9 Oeste 16 Sudoeste 0 -- -- 82
2017-12-01 06:00:00 -0.6 9 Sudoeste 20 Oeste 0.2 -- -- 81
2017-12-01 05:00:00 -0.3 9 Oeste 18 Sudoeste 0 -- -- 79
2017-12-01 04:00:00 -0.3 9 Oeste 17 Oeste 0 -- -- 80
2017-12-01 03:00:00 -0.5 7 Oeste 12 Oeste 0 -- -- 80
2017-12-01 02:00:00 -0.4 7 Oeste 12 Oeste 0 -- -- 78
2017-12-01 01:00:00 0.1 4 Oeste 9 Oeste 0.2 -- -- 74
2017-12-01 00:00:00 0.5 5 Oeste 8 Oeste 0 -- -- 72
2017-11-30 23:00:00 1.1 2 Oeste 6 Oeste 0 -- -- 68
2017-11-30 22:00:00 2 2 Sudoeste 6 Noroeste 0 -- -- 65
2017-11-30 21:00:00 2.9 3 Nordeste 12 Nordeste 0.2 -- -- 60
2017-11-30 20:00:00 4.5 6 Nordeste 15 Nordeste 0 -- -- 51
2017-11-30 19:00:00 4.4 9 Norte 22 Norte 0 -- -- 54
2017-11-30 18:00:00 6.1 14 Nordeste 26 Nordeste 0.2 -- -- 45
2017-11-30 17:00:00 8.8 8 Nordeste 18 Norte 0 -- -- 41
2017-11-30 16:00:00 9.9 8 Norte 15 Norte 0.2 -- -- 33
2017-11-30 15:00:00 9.4 6 Nordeste 14 Norte 0 -- -- 35
2017-11-30 14:00:00 8.4 7 Norte 15 Norte 0.2 -- -- 38
2017-11-30 13:00:00 7.3 5 Nordeste 14 Nordeste 0 -- -- 47
2017-11-30 12:00:00 5 3 Noroeste 9 Noroeste 0.2 -- -- 65
2017-11-30 11:00:00 3.5 3 Oeste 7 Sudoeste 0 -- -- 74
2017-11-30 10:00:00 1.5 4 Sudoeste 9 Sur 0.2 -- -- 88
2017-11-30 09:00:00 0 0 Calma 3 Noroeste 0 -- -- 92
2017-11-30 08:00:00 -0.3 0 Calma 2 Sur 0 -- -- 91
2017-11-30 07:00:00 0.5 0 Calma 2 Sudeste 0 -- -- 89
2017-11-30 06:00:00 1.3 0 Calma 4 Norte 0.2 -- -- 84
2017-11-30 05:00:00 1.7 0 Calma 3 Sudoeste 0 -- -- 85
2017-11-30 04:00:00 2.9 2 Sudoeste 5 Sudoeste 0 -- -- 83
2017-11-30 03:00:00 4 0 Calma 9 Nordeste 0 -- -- 78
2017-11-30 02:00:00 4.3 3 Norte 14 Nordeste 0 -- -- 77
2017-11-30 01:00:00 4.5 10 Nordeste 16 Nordeste 0 -- -- 79
2017-11-30 00:00:00 6.4 5 Nordeste 12 Nordeste 0 -- -- 93
2017-11-29 23:00:00 6.4 5 Nordeste 14 Nordeste 0 -- -- 93
2017-11-29 22:00:00 7.2 6 Nordeste 20 Este 0.2 -- -- 92
2017-11-29 21:00:00 7.7 6 Nordeste 21 Nordeste 0 -- -- 93
2017-11-29 20:00:00 8.6 7 Nordeste 21 Nordeste 0 -- -- 91
2017-11-29 19:00:00 9.5 4 Oeste 6 Noroeste 0 -- -- 87
2017-11-29 18:00:00 10.1 0 Calma 3 Sudoeste 0 -- -- 86
2017-11-29 17:00:00 10.7 0 Calma 3 Norte 0.2 -- -- 85
2017-11-29 16:00:00 10.9 2 Sudoeste 6 Sur 0 -- -- 82
2017-11-29 15:00:00 11.2 0 Calma 7 Norte 0 -- -- 81
2017-11-29 14:00:00 10.5 3 Norte 12 Nordeste 0 -- -- 86
2017-11-29 13:00:00 10.4 5 Norte 15 Noroeste 0.2 -- -- 88
2017-11-29 12:00:00 10.1 4 Norte 8 Noroeste 0 -- -- 89
2017-11-29 11:00:00 9.9 2 Norte 6 Norte 0 -- -- 93
2017-11-29 10:00:00 9.2 0 Calma 8 Sur 0.2 -- -- 95
2017-11-29 09:00:00 9.4 0 Calma 4 Noroeste 0 -- -- 95
2017-11-29 08:00:00 9.5 0 Calma 6 Noroeste 0 -- -- 95
2017-11-29 07:00:00 9.6 0 Calma 4 Oeste 0.2 -- -- 95
2017-11-29 06:00:00 9.6 0 Calma 5 Oeste 0 -- -- 95
2017-11-29 05:00:00 9.7 3 Oeste 5 Oeste 0.2 -- -- 95
2017-11-29 04:00:00 9.8 4 Oeste 11 Noroeste 0 -- -- 95
2017-11-29 03:00:00 9.9 5 Oeste 13 Oeste 0.2 -- -- 95
2017-11-29 02:00:00 10 7 Oeste 15 Oeste 0 -- -- 95
2017-11-29 01:00:00 10.1 8 Oeste 21 Oeste 0.2 -- -- 95
2017-11-29 00:00:00 10.2 9 Oeste 22 Sudoeste 0 -- -- 94
2017-11-28 23:00:00 10.2 8 Oeste 16 Sudoeste 0.2 -- -- 94
2017-11-28 22:00:00 10.3 5 Oeste 12 Oeste 0.2 -- -- 94
2017-11-28 21:00:00 10.1 5 Oeste 9 Noroeste 0.2 -- -- 94
2017-11-28 20:00:00 10.1 4 Oeste 10 Oeste 0.2 -- -- 94
2017-11-28 19:00:00 10.1 4 Oeste 10 Oeste 0.2 -- -- 93
2017-11-28 18:00:00 10.3 5 Oeste 16 Oeste 0.2 -- -- 91
2017-11-28 17:00:00 10.6 8 Oeste 23 Oeste 0.4 -- -- 90
2017-11-28 16:00:00 11.3 11 Noroeste 28 Oeste 0.2 -- -- 86
2017-11-28 15:00:00 12.9 12 Oeste 28 Oeste 0 -- -- 68
2017-11-28 14:00:00 13.7 15 Oeste 31 Oeste 0 -- -- 64
2017-11-28 13:00:00 12.4 12 Oeste 23 Oeste 0 -- -- 68
2017-11-28 12:00:00 9.5 8 Oeste 14 Oeste 0 -- -- 75
2017-11-28 11:00:00 8.1 5 Oeste 10 Oeste 0 -- -- 72
2017-11-28 10:00:00 7.1 0 Calma 8 Oeste 0 -- -- 78
2017-11-28 09:00:00 6.1 4 Oeste 9 Oeste 0 -- -- 81
2017-11-28 08:00:00 5.4 2 Oeste 5 Oeste 0 -- -- 86
2017-11-28 07:00:00 5 2 Oeste 7 Sudoeste 0 -- -- 87
2017-11-28 06:00:00 4.8 2 Oeste 6 Oeste 0 -- -- 89
2017-11-28 05:00:00 4.6 0 Calma 6 Oeste 0 -- -- 90
2017-11-28 04:00:00 4.6 2 Oeste 7 Noroeste 0 -- -- 89
2017-11-28 03:00:00 4.4 6 Noroeste 9 Noroeste 0 -- -- 89
2017-11-28 02:00:00 4.6 6 Noroeste 8 Noroeste 0 -- -- 86
2017-11-28 01:00:00 5.8 3 Oeste 9 Oeste 0 -- -- 84
2017-11-28 00:00:00 6.2 3 Oeste 6 Oeste 0 -- -- 83
2017-11-27 23:00:00 6.5 3 Oeste 8 Noroeste 0 -- -- 82
2017-11-27 22:00:00 6.9 4 Noroeste 7 Noroeste 0 -- -- 78
2017-11-27 21:00:00 7.7 3 Noroeste 6 Noroeste 0 -- -- 71
2017-11-27 20:00:00 8.4 0 Calma 3 Sudoeste 0 -- -- 64
2017-11-27 19:00:00 9.2 0 Calma 3 Sudoeste 0 -- -- 62
2017-11-27 18:00:00 10.4 3 Este 8 Este 0 -- -- 59
2017-11-27 17:00:00 12.6 4 Nordeste 8 Norte 0 -- -- 54
2017-11-27 16:00:00 13.6 4 Nordeste 12 Nordeste 0 -- -- 51
2017-11-27 15:00:00 13 5 Nordeste 11 Nordeste 0 -- -- 52
2017-11-27 14:00:00 11.8 5 Nordeste 16 Noroeste 0 -- -- 53
2017-11-27 13:00:00 9.6 7 Nordeste 17 Nordeste 0 -- -- 57
2017-11-27 12:00:00 8.9 6 Nordeste 15 Este 0 -- -- 52
2017-11-27 11:00:00 5.8 4 Este 13 Este 0 -- -- 54
2017-11-27 10:00:00 2.4 5 Nordeste 15 Nordeste 0 -- -- 61
2017-11-27 09:00:00 -1 0 Calma 8 Nordeste 0 -- -- 69
2017-11-27 08:00:00 -1.5 0 Calma 12 Este 0 -- -- 70
2017-11-27 07:00:00 -2.3 2 Nordeste 6 Nordeste 0 -- -- 73
2017-11-27 06:00:00 -1.9 2 Este 6 Nordeste 0 -- -- 68
2017-11-27 05:00:00 -2 0 Calma 7 Nordeste 0 -- -- 64
2017-11-27 04:00:00 -1.6 3 Norte 5 Norte 0 -- -- 63
2017-11-27 03:00:00 -0.9 0 Calma 4 Este 0 -- -- 65
2017-11-27 02:00:00 -0.4 0 Calma 6 Nordeste 0 -- -- 61
2017-11-27 01:00:00 0.6 0 Calma 4 Sudoeste 0 -- -- 61
2017-11-27 00:00:00 1.2 0 Calma 6 Nordeste 0 -- -- 59
2017-11-26 23:00:00 2.3 0 Calma 4 Sudeste 0 -- -- 55
2017-11-26 22:00:00 3.1 0 Calma 4 Sudeste 0 -- -- 52
2017-11-26 21:00:00 4.7 0 Calma 6 Sudoeste 0 -- -- 47
2017-11-26 20:00:00 6.6 2 Sudoeste 8 Nordeste 0 -- -- 44
2017-11-26 19:00:00 8.3 0 Calma 5 Sur 0 -- -- 40
2017-11-26 18:00:00 11.2 3 Oeste 8 Oeste 0 -- -- 34
2017-11-26 17:00:00 14 4 Sur 8 Sur 0 -- -- 29
2017-11-26 16:00:00 14.6 2 Noroeste 11 Oeste 0 -- -- 28
2017-11-26 15:00:00 13.8 5 Sudoeste 12 Oeste 0 -- -- 31
2017-11-26 14:00:00 12.9 4 Oeste 13 Oeste 0 -- -- 36
2017-11-26 13:00:00 10.9 5 Noroeste 14 Noroeste 0 -- -- 39
2017-11-26 12:00:00 8.8 3 Nordeste 9 Noroeste 0 -- -- 46
2017-11-26 11:00:00 7.4 0 Calma 8 Sudoeste 0 -- -- 58
2017-11-26 10:00:00 5.4 0 Calma 7 Sudoeste 0 -- -- 68
2017-11-26 09:00:00 2.8 0 Calma 4 Sudoeste 0 -- -- 77
2017-11-26 08:00:00 2.8 0 Calma 6 Oeste 0 -- -- 75
2017-11-26 07:00:00 3.7 2 Oeste 4 Noroeste 0 -- -- 72
2017-11-26 06:00:00 4.6 0 Calma 5 Oeste 0 -- -- 69
2017-11-26 05:00:00 5.7 0 Calma 5 Noroeste 0 -- -- 66
2017-11-26 04:00:00 6.8 0 Calma 7 Nordeste 0 -- -- 63
2017-11-26 03:00:00 8.1 4 Nordeste 8 Nordeste 0 -- -- 66
2017-11-26 02:00:00 7.8 0 Calma 3 Norte 0 -- -- 61
2017-11-26 01:00:00 9 0 Calma 8 Norte 0 -- -- 58
2017-11-26 00:00:00 9.7 3 Norte 5 Norte 0 -- -- 50
2017-11-25 23:00:00 10.3 2 Sudeste 6 Sudeste 0 -- -- 48
2017-11-25 22:00:00 11.2 0 Calma 5 Sudoeste 0 -- -- 46
2017-11-25 21:00:00 12.5 3 Norte 12 Oeste 0 -- -- 42
2017-11-25 20:00:00 13.2 6 Oeste 17 Oeste 0 -- -- 40
2017-11-25 19:00:00 14.2 6 Noroeste 15 Noroeste 0 -- -- 37
2017-11-25 18:00:00 15.5 9 Oeste 25 Noroeste 0 -- -- 34
2017-11-25 17:00:00 16.8 14 Noroeste 30 Noroeste 0 -- -- 31
2017-11-25 16:00:00 17.3 16 Noroeste 31 Noroeste 0 -- -- 30
2017-11-25 15:00:00 17.2 8 Oeste 19 Noroeste 0 -- -- 34
2017-11-25 14:00:00 16.1 9 Oeste 19 Oeste 0 -- -- 36
2017-11-25 13:00:00 13 5 Oeste 8 Oeste 0 -- -- 43
2017-11-25 12:00:00 10.6 5 Oeste 8 Sudoeste 0 -- -- 47
2017-11-25 11:00:00 8.8 0 Calma 8 Noroeste 0 -- -- 50
2017-11-25 10:00:00 7.9 3 Noroeste 7 Sudoeste 0 -- -- 53
2017-11-25 09:00:00 6.8 4 Oeste 8 Oeste 0 -- -- 54
2017-11-25 08:00:00 6.7 5 Oeste 8 Oeste 0 -- -- 54
2017-11-25 07:00:00 6.9 4 Noroeste 9 Oeste 0 -- -- 53
2017-11-25 06:00:00 6.6 5 Oeste 9 Noroeste 0 -- -- 53
2017-11-25 05:00:00 6.8 4 Noroeste 7 Oeste 0 -- -- 50
2017-11-25 04:00:00 6.8 4 Oeste 6 Oeste 0 -- -- 49
2017-11-25 03:00:00 6.6 0 Calma 3 Noroeste 0 -- -- 49
2017-11-25 02:00:00 7.1 0 Calma 5 Norte 0 -- -- 48
2017-11-25 01:00:00 7.5 3 Noroeste 7 Noroeste 0 -- -- 46
2017-11-25 00:00:00 8.1 3 Oeste 8 Norte 0 -- -- 45
2017-11-24 23:00:00 9.7 3 Noroeste 6 Oeste 0 -- -- 42
2017-11-24 22:00:00 9.8 3 Sudoeste 6 Sudoeste 0 -- -- 43
2017-11-24 21:00:00 10.2 0 Calma 4 Oeste 0 -- -- 43
2017-11-24 20:00:00 11.1 0 Calma 3 Sur 0 -- -- 41
2017-11-24 19:00:00 13.4 0 Calma 7 Noroeste 0 -- -- 35
2017-11-24 18:00:00 15.6 7 Noroeste 10 Noroeste 0 -- -- 31
2017-11-24 17:00:00 18.4 4 Noroeste 20 Noroeste 0 -- -- 28
2017-11-24 16:00:00 20.5 13 Noroeste 23 Noroeste 0 -- -- 26
2017-11-24 15:00:00 21 12 Oeste 21 Noroeste 0 -- -- 26
2017-11-24 14:00:00 19.6 11 Sudoeste 23 Sudoeste 0 -- -- 28
2017-11-24 13:00:00 17.9 6 Sudoeste 17 Oeste 0 -- -- 32
2017-11-24 12:00:00 14.5 9 Oeste 21 Oeste 0 -- -- 38
2017-11-24 11:00:00 11.5 6 Oeste 13 Oeste 0 -- -- 43
2017-11-24 10:00:00 8.1 3 Noroeste 10 Norte 0 -- -- 53
2017-11-24 09:00:00 4.9 0 Calma 3 Sudeste 0 -- -- 61
2017-11-24 08:00:00 4.9 0 Calma 4 Sudeste 0 -- -- 59
2017-11-24 07:00:00 5.5 0 Calma 6 Nordeste 0 -- -- 56
2017-11-24 06:00:00 5.9 2 Norte 6 Norte 0 -- -- 56
2017-11-24 05:00:00 5.7 3 Norte 5 Noroeste 0 -- -- 57
2017-11-24 04:00:00 6 0 Calma 4 Noroeste 0 -- -- 55
2017-11-24 03:00:00 6.8 0 Calma 4 Noroeste 0 -- -- 53
2017-11-24 02:00:00 7.4 0 Calma 8 Norte 0 -- -- 50
2017-11-24 01:00:00 8.2 2 Noroeste 7 Noroeste 0 -- -- 49
2017-11-24 00:00:00 8.4 0 Calma 5 Oeste 0 -- -- 47
2017-11-23 23:00:00 8.3 3 Oeste 4 Sudoeste 0 -- -- 48
2017-11-23 22:00:00 9.1 2 Noroeste 6 Oeste 0 -- -- 46
2017-11-23 21:00:00 9.5 2 Oeste 4 Noroeste 0 -- -- 44
2017-11-23 20:00:00 10.7 0 Calma 4 Sudeste 0 -- -- 42
2017-11-23 19:00:00 13.1 2 Este 12 Oeste 0 -- -- 38
2017-11-23 18:00:00 15.4 2 Oeste 6 Oeste 0 -- -- 33
2017-11-23 17:00:00 17.9 4 Noroeste 13 Noroeste 0 -- -- 29
2017-11-23 16:00:00 19.1 7 Noroeste 14 Noroeste 0 -- -- 27
2017-11-23 15:00:00 18.7 5 Oeste 18 Oeste 0 -- -- 27
2017-11-23 14:00:00 16.6 9 Oeste 17 Oeste 0 -- -- 30
2017-11-23 13:00:00 13.6 3 Sudoeste 6 Oeste 0 -- -- 35
2017-11-23 12:00:00 10.8 6 Noroeste 9 Oeste 0 -- -- 39
2017-11-23 11:00:00 7.7 2 Sudoeste 6 Oeste 0 -- -- 46
2017-11-23 10:00:00 4.8 2 Oeste 8 Norte 0 -- -- 54
2017-11-23 09:00:00 2.4 0 Calma 6 Norte 0 -- -- 57
2017-11-23 08:00:00 1.8 0 Calma 5 Noroeste 0 -- -- 59
2017-11-23 07:00:00 2 2 Noroeste 5 Norte 0 -- -- 58
2017-11-23 06:00:00 2.7 4 Noroeste 8 Noroeste 0 -- -- 55
2017-11-23 05:00:00 2.7 2 Oeste 4 Sudoeste 0 -- -- 57
2017-11-23 04:00:00 2.5 0 Calma 8 Noroeste 0 -- -- 54
2017-11-23 03:00:00 3 3 Noroeste 5 Noroeste 0 -- -- 55
2017-11-23 02:00:00 3.3 3 Noroeste 7 Noroeste 0 -- -- 53
2017-11-23 01:00:00 3.6 0 Calma 5 Oeste 0 -- -- 51
2017-11-23 00:00:00 4.7 3 Noroeste 4 Noroeste 0 -- -- 48
2017-11-22 23:00:00 6.2 0 Calma 9 Oeste 0 -- -- 43
2017-11-22 22:00:00 6.9 3 Oeste 8 Norte 0 -- -- 42
2017-11-22 21:00:00 8.4 2 Oeste 8 Oeste 0 -- -- 39
2017-11-22 20:00:00 9.6 3 Sudoeste 5 Oeste 0 -- -- 37
2017-11-22 19:00:00 11.6 0 Calma 8 Oeste 0 -- -- 33
2017-11-22 18:00:00 15.2 3 Sudoeste 13 Sudoeste 0 -- -- 28
2017-11-22 17:00:00 18.9 6 Oeste 17 Sudoeste 0 -- -- 23
2017-11-22 16:00:00 19.4 6 Oeste 13 Sur 0 -- -- 22
2017-11-22 15:00:00 18.6 5 Oeste 18 Oeste 0 -- -- 24
2017-11-22 14:00:00 17.4 6 Oeste 14 Noroeste 0 -- -- 27
2017-11-22 13:00:00 13.8 4 Noroeste 9 Noroeste 0 -- -- 34
2017-11-22 12:00:00 9.5 2 Sudoeste 6 Sudoeste 0 -- -- 41
2017-11-22 11:00:00 6.6 3 Noroeste 10 Noroeste 0 -- -- 47
2017-11-22 10:00:00 2.6 2 Sudoeste 4 Sudoeste 0 -- -- 58
2017-11-22 09:00:00 -0.4 0 Calma 2 Oeste 0 -- -- 67
2017-11-22 08:00:00 -0.8 0 Calma 2 Sudoeste 0 -- -- 67
2017-11-22 07:00:00 -0.6 0 Calma 0 Calma 0 -- -- 66
2017-11-22 06:00:00 -0.1 0 Calma 3 Noroeste 0 -- -- 63
2017-11-22 05:00:00 0.6 2 Noroeste 8 Norte 0 -- -- 58
2017-11-22 04:00:00 1.6 0 Calma 2 Noroeste 0 -- -- 59
2017-11-22 03:00:00 2 0 Calma 2 Norte 0 -- -- 56
2017-11-22 02:00:00 3.1 3 Noroeste 6 Noroeste 0 -- -- 52
2017-11-22 01:00:00 4.1 0 Calma 4 Oeste 0 -- -- 51
2017-11-22 00:00:00 5.1 2 Oeste 9 Oeste 0 -- -- 48
2017-11-21 23:00:00 5.6 0 Calma 6 Noroeste 0 -- -- 46
2017-11-21 22:00:00 6.5 0 Calma 4 Noroeste 0 -- -- 48
2017-11-21 21:00:00 7.9 0 Calma 4 Oeste 0 -- -- 44
2017-11-21 20:00:00 9.3 0 Calma 3 Sur 0 -- -- 41
2017-11-21 19:00:00 11.8 2 Sudeste 5 Oeste 0 -- -- 36
2017-11-21 18:00:00 15.6 4 Oeste 9 Sudoeste 0 -- -- 31
2017-11-21 17:00:00 19.4 4 Oeste 15 Sudoeste 0 -- -- 24
2017-11-21 16:00:00 20.1 7 Sudoeste 15 Noroeste 0 -- -- 24
2017-11-21 15:00:00 19.3 6 Oeste 18 Oeste 0 -- -- 27
2017-11-21 14:00:00 17.7 8 Sudoeste 15 Oeste 0 -- -- 29
2017-11-21 13:00:00 15 7 Oeste 14 Sudoeste 0 -- -- 32
2017-11-21 12:00:00 11.3 6 Sudoeste 14 Noroeste 0 -- -- 37
2017-11-21 11:00:00 7.6 5 Sudoeste 16 Oeste 0 -- -- 44
2017-11-21 10:00:00 4.1 7 Oeste 15 Oeste 0 -- -- 51
2017-11-21 09:00:00 1 4 Oeste 10 Oeste 0 -- -- 60
2017-11-21 08:00:00 0 5 Oeste 9 Oeste 0 -- -- 62
2017-11-21 07:00:00 0.3 4 Oeste 8 Noroeste 0 -- -- 59
2017-11-21 06:00:00 0.6 4 Noroeste 6 Noroeste 0 -- -- 57
2017-11-21 05:00:00 1.6 3 Oeste 6 Oeste 0 -- -- 56
2017-11-21 04:00:00 2.2 3 Oeste 5 Oeste 0 -- -- 53
2017-11-21 03:00:00 2.5 3 Oeste 5 Oeste 0 -- -- 52
2017-11-21 02:00:00 3.6 3 Noroeste 6 Oeste 0 -- -- 48
2017-11-21 01:00:00 4.7 4 Oeste 9 Oeste 0 -- -- 47
2017-11-21 00:00:00 5.6 5 Oeste 8 Oeste 0 -- -- 43
2017-11-20 23:00:00 7 4 Oeste 8 Oeste 0 -- -- 40
2017-11-20 22:00:00 6.5 0 Calma 2 Oeste 0 -- -- 44
2017-11-20 21:00:00 7.7 0 Calma 2 Sur 0 -- -- 41
2017-11-20 20:00:00 9.5 0 Calma 4 Sudoeste 0 -- -- 37
2017-11-20 19:00:00 12 3 Sudoeste 6 Sudoeste 0 -- -- 33
2017-11-20 18:00:00 15.7 4 Oeste 9 Sudoeste 0 -- -- 26
2017-11-20 17:00:00 19.1 6 Sudoeste 10 Sudoeste 0 -- -- 22
2017-11-20 16:00:00 19.7 6 Oeste 13 Oeste 0 -- -- 22
2017-11-20 15:00:00 18.5 6 Sudoeste 15 Oeste 0 -- -- 24
2017-11-20 14:00:00 16.8 7 Oeste 14 Oeste 0 -- -- 31
2017-11-20 13:00:00 13.7 6 Sudoeste 14 Sudoeste 0 -- -- 39
2017-11-20 12:00:00 9.4 3 Oeste 12 Oeste 0 -- -- 52
2017-11-20 11:00:00 5.7 4 Sudoeste 9 Oeste 0 -- -- 60
2017-11-20 10:00:00 3 3 Oeste 9 Oeste 0 -- -- 68
2017-11-20 09:00:00 0 2 Sudoeste 6 Noroeste 0 -- -- 78
2017-11-20 08:00:00 -0.4 3 Noroeste 6 Noroeste 0 -- -- 79
2017-11-20 07:00:00 0.1 0 Calma 2 Oeste 0 -- -- 77
2017-11-20 06:00:00 0.7 0 Calma 6 Noroeste 0 -- -- 73
2017-11-20 05:00:00 1.5 0 Calma 3 Noroeste 0 -- -- 73
2017-11-20 04:00:00 2 0 Calma 5 Noroeste 0 -- -- 70
2017-11-20 03:00:00 3.1 2 Noroeste 5 Oeste 0 -- -- 67
2017-11-20 02:00:00 4 0 Calma 3 Oeste 0 -- -- 66
2017-11-20 01:00:00 4.8 0 Calma 7 Oeste 0 -- -- 62
2017-11-20 00:00:00 5.9 4 Noroeste 9 Oeste 0 -- -- 59
2017-11-19 23:00:00 6.7 3 Noroeste 6 Oeste 0 -- -- 59
2017-11-19 22:00:00 7.4 3 Oeste 5 Noroeste 0 -- -- 57
2017-11-19 21:00:00 8.5 0 Calma 4 Sudoeste 0 -- -- 55
2017-11-19 20:00:00 9.9 3 Oeste 4 Oeste 0 -- -- 51
2017-11-19 19:00:00 12 2 Sur 6 Noroeste 0 -- -- 46
2017-11-19 18:00:00 15.3 4 Noroeste 9 Oeste 0 -- -- 39
2017-11-19 17:00:00 19.2 4 Oeste 12 Oeste 0 -- -- 32
2017-11-19 16:00:00 19.5 7 Oeste 15 Oeste 0 -- -- 33
2017-11-19 15:00:00 18.9 4 Oeste 10 Sur 0 -- -- 39
2017-11-19 14:00:00 16.6 4 Noroeste 11 Oeste 0 -- -- 47
2017-11-19 13:00:00 13.4 3 Noroeste 8 Noroeste 0 -- -- 58
2017-11-19 12:00:00 9.3 4 Sudoeste 8 Sudoeste 0 -- -- 72
2017-11-19 11:00:00 5.6 2 Sur 5 Sudoeste 0 -- -- 93
2017-11-19 10:00:00 2.7 0 Calma 3 Sudoeste 0 -- -- 95
2017-11-19 09:00:00 1.8 0 Calma 2 Sudeste 0 -- -- 95
2017-11-19 08:00:00 1.9 0 Calma 3 Nordeste 0 -- -- 94
2017-11-19 07:00:00 3.1 0 Calma 5 Este 0 -- -- 94
2017-11-19 06:00:00 2.8 0 Calma 5 Nordeste 0 -- -- 93
2017-11-19 05:00:00 2.4 0 Calma 7 Nordeste 0 -- -- 90
2017-11-19 04:00:00 2.8 0 Calma 4 Este 0 -- -- 75
2017-11-19 03:00:00 4 0 Calma 7 Este 0 -- -- 83
2017-11-19 02:00:00 4.5 2 Este 14 Nordeste 0 -- -- 84
2017-11-19 01:00:00 5 5 Nordeste 13 Este 0 -- -- 72
2017-11-19 00:00:00 6.2 3 Este 12 Este 0 -- -- 64
2017-11-18 23:00:00 6.7 5 Nordeste 13 Nordeste 0 -- -- 61
2017-11-18 22:00:00 8 5 Este 19 Nordeste 0 -- -- 57
2017-11-18 21:00:00 8.8 9 Nordeste 24 Nordeste 0 -- -- 55
2017-11-18 20:00:00 10 8 Este 22 Nordeste 0 -- -- 50
2017-11-18 19:00:00 12.3 3 Sudeste 12 Este 0 -- -- 37
2017-11-18 18:00:00 15.7 2 Nordeste 5 Norte 0 -- -- 31
2017-11-18 17:00:00 20.5 3 Norte 6 Norte 0 -- -- 25
2017-11-18 16:00:00 21.4 2 Norte 6 Oeste 0 -- -- 23
2017-11-18 15:00:00 20 4 Norte 9 Oeste 0 -- -- 25
2017-11-18 14:00:00 18.2 3 Sudoeste 7 Sudoeste 0 -- -- 29
2017-11-18 13:00:00 14.6 2 Nordeste 7 Sudoeste 0 -- -- 36
2017-11-18 12:00:00 10.3 2 Sudoeste 6 Sudoeste 0 -- -- 44
2017-11-18 11:00:00 7.3 2 Sur 5 Noroeste 0 -- -- 51
2017-11-18 10:00:00 3.4 2 Sudoeste 4 Oeste 0 -- -- 61
2017-11-18 09:00:00 0.6 0 Calma 4 Norte 0 -- -- 67
2017-11-18 08:00:00 -0.4 0 Calma 4 Norte 0 -- -- 71
2017-11-18 07:00:00 0.3 0 Calma 2 Noroeste 0 -- -- 69
2017-11-18 06:00:00 0.4 0 Calma 2 Sudoeste 0 -- -- 69
2017-11-18 05:00:00 0.6 0 Calma 6 Noroeste 0 -- -- 64
2017-11-18 04:00:00 1.8 0 Calma 3 Norte 0 -- -- 63
2017-11-18 03:00:00 2.5 0 Calma 2 Este 0 -- -- 61
2017-11-18 02:00:00 3.2 0 Calma 2 Nordeste 0 -- -- 58
2017-11-18 01:00:00 4.2 0 Calma 5 Oeste 0 -- -- 57
2017-11-18 00:00:00 5.1 3 Noroeste 4 Oeste 0 -- -- 54
2017-11-17 23:00:00 5.9 2 Sudeste 5 Nordeste 0 -- -- 50
2017-11-17 22:00:00 7.1 2 Nordeste 4 Nordeste 0 -- -- 48
2017-11-17 21:00:00 8.1 0 Calma 3 Oeste 0 -- -- 47
2017-11-17 20:00:00 9.7 0 Calma 4 Sudeste 0 -- -- 43
2017-11-17 19:00:00 11.8 0 Calma 6 Nordeste 0 -- -- 37
2017-11-17 18:00:00 14.8 0 Calma 6 Nordeste 0 -- -- 32
2017-11-17 17:00:00 18.5 2 Nordeste 9 Nordeste 0 -- -- 28
2017-11-17 16:00:00 19 4 Nordeste 9 Nordeste 0 -- -- 26
2017-11-17 15:00:00 17.8 3 Nordeste 9 Nordeste 0 -- -- 29
2017-11-17 14:00:00 16.3 3 Norte 6 Norte 0 -- -- 32
2017-11-17 13:00:00 13.5 2 Oeste 9 Oeste 0 -- -- 38
2017-11-17 12:00:00 9.5 0 Calma 6 Sur 0 -- -- 46
2017-11-17 11:00:00 6.2 0 Calma 8 Oeste 0 -- -- 54
2017-11-17 10:00:00 3.1 3 Sudoeste 6 Oeste 0 -- -- 62
2017-11-17 09:00:00 -0.4 0 Calma 4 Oeste 0 -- -- 74
2017-11-17 08:00:00 -1.1 0 Calma 6 Noroeste 0 -- -- 73
2017-11-17 07:00:00 -0.5 3 Noroeste 5 Noroeste 0 -- -- 70
2017-11-17 06:00:00 0.1 0 Calma 2 Noroeste 0 -- -- 70
2017-11-17 05:00:00 0.6 0 Calma 2 Oeste 0 -- -- 69
2017-11-17 04:00:00 0.9 0 Calma 2 Sur 0 -- -- 68
2017-11-17 03:00:00 1.7 0 Calma 9 Norte 0 -- -- 68
2017-11-17 02:00:00 2.5 0 Calma 3 Oeste 0 -- -- 62
2017-11-17 01:00:00 3.1 0 Calma -- -- 0 -- -- 60
2017-11-17 00:00:00 4 0 Calma 2 Este 0 -- -- 61
2017-11-16 23:00:00 5 0 Calma 5 Nordeste 0 -- -- 61
2017-11-16 22:00:00 6.1 0 Calma 5 Este 0 -- -- 53
2017-11-16 21:00:00 7.4 2 Nordeste 6 Este 0 -- -- 49
2017-11-16 20:00:00 8.5 2 Este 4 Sudeste 0 -- -- 44
2017-11-16 19:00:00 10.4 0 Calma 4 Este 0 -- -- 39
2017-11-16 18:00:00 13.3 0 Calma 6 Sudoeste 0 -- -- 33
2017-11-16 17:00:00 16.9 3 Sudoeste 9 Oeste 0 -- -- 28
2017-11-16 16:00:00 17.9 4 Sudoeste 13 Oeste 0 -- -- 26
2017-11-16 15:00:00 16.6 6 Oeste 11 Sudoeste 0 -- -- 28
2017-11-16 14:00:00 15.5 4 Sur 11 Sur 0 -- -- 29
2017-11-16 13:00:00 13 5 Sur 13 Sudoeste 0 -- -- 33
2017-11-16 12:00:00 9.7 5 Oeste 15 Oeste 0 -- -- 39
2017-11-16 11:00:00 6.1 4 Oeste 10 Oeste 0 -- -- 46
2017-11-16 10:00:00 2.9 2 Sudoeste 3 Sur 0 -- -- 55
2017-11-16 09:00:00 -0.5 2 Noroeste 4 Noroeste 0 -- -- 62
2017-11-16 08:00:00 -1 0 Calma 3 Oeste 0 -- -- 63
2017-11-16 07:00:00 -0.6 3 Noroeste 5 Oeste 0 -- -- 62
2017-11-16 06:00:00 0.3 3 Oeste 7 Oeste 0 -- -- 60
2017-11-16 05:00:00 1.4 5 Oeste 8 Oeste 0 -- -- 55
2017-11-16 04:00:00 1.6 3 Oeste 5 Oeste 0 -- -- 54
2017-11-16 03:00:00 2.5 2 Oeste 6 Oeste 0 -- -- 51
2017-11-16 02:00:00 3.1 0 Calma 6 Oeste 0 -- -- 49
2017-11-16 01:00:00 4.3 4 Noroeste 7 Oeste 0 -- -- 46
2017-11-16 00:00:00 5.7 4 Oeste 8 Oeste 0 -- -- 42
2017-11-15 23:00:00 6.2 4 Oeste 8 Oeste 0 -- -- 40
2017-11-15 22:00:00 7.1 4 Oeste 8 Sudoeste 0 -- -- 37
2017-11-15 21:00:00 7.6 4 Oeste 9 Oeste 0 -- -- 35
2017-11-15 20:00:00 8.5 2 Sudoeste 5 Sudoeste 0 -- -- 34
2017-11-15 19:00:00 10.7 2 Sudoeste 7 Oeste 0 -- -- 30
2017-11-15 18:00:00 13.2 3 Sudoeste 9 Oeste 0 -- -- 27
2017-11-15 17:00:00 15.6 7 Oeste 15 Oeste 0 -- -- 24
2017-11-15 16:00:00 16.6 9 Oeste 19 Oeste 0 -- -- 22
2017-11-15 15:00:00 15.9 7 Sudoeste 16 Sudoeste 0 -- -- 23
2017-11-15 14:00:00 14.6 5 Sudoeste 16 Sudoeste 0 -- -- 27
2017-11-15 13:00:00 12.4 9 Oeste 14 Oeste 0 -- -- 32
2017-11-15 12:00:00 9.1 4 Sudoeste 9 Sudoeste 0 -- -- 43
2017-11-15 11:00:00 5.9 3 Oeste 8 Noroeste 0 -- -- 47
2017-11-15 10:00:00 2.8 3 Oeste 5 Oeste 0 -- -- 53
2017-11-15 09:00:00 -1 0 Calma 2 Sudeste 0 -- -- 67
2017-11-15 08:00:00 -2.4 0 Calma 2 Este 0 -- -- 66
2017-11-15 07:00:00 -2.1 0 Calma 3 Norte 0 -- -- 61
2017-11-15 06:00:00 -1.7 0 Calma 2 Sudoeste 0 -- -- 61
2017-11-15 05:00:00 -0.9 0 Calma 3 Nordeste 0 -- -- 56
2017-11-15 04:00:00 -0.3 0 Calma 4 Este 0 -- -- 56
2017-11-15 03:00:00 0.1 0 Calma 3 Sudoeste 0 -- -- 54
2017-11-15 02:00:00 1 0 Calma 5 Este 0 -- -- 51
2017-11-15 01:00:00 2 2 Nordeste 5 Nordeste 0 -- -- 48
2017-11-15 00:00:00 2.3 0 Calma 5 Nordeste 0 -- -- 46